createdAt,value
2023-05-24T00:01:26.650Z,12.70
2023-05-24T00:03:59.032Z,12.70
2023-05-24T00:06:28.082Z,12.60
2023-05-24T00:08:56.139Z,12.60
2023-05-24T00:11:24.218Z,12.70
2023-05-24T00:13:52.212Z,12.70
2023-05-24T00:16:20.323Z,12.70
2023-05-24T00:18:49.838Z,12.70
2023-05-24T00:21:17.975Z,12.70
2023-05-24T00:23:46.048Z,12.70
2023-05-24T00:26:14.215Z,12.70
2023-05-24T00:28:42.295Z,12.70
2023-05-24T00:31:10.306Z,12.70
2023-05-24T00:33:38.475Z,12.70
2023-05-24T00:36:08.148Z,12.70
2023-05-24T00:38:36.171Z,12.70
2023-05-24T00:41:04.350Z,12.70
2023-05-24T00:43:32.349Z,12.70
2023-05-24T00:46:20.322Z,12.70
2023-05-24T00:48:49.495Z,12.70
2023-05-24T00:51:19.294Z,12.70
2023-05-24T00:53:48.605Z,12.70
2023-05-24T00:56:17.968Z,12.70
2023-05-24T00:58:46.565Z,12.70
2023-05-24T01:01:14.877Z,12.70
2023-05-24T01:03:43.421Z,12.70
2023-05-24T01:06:11.835Z,12.70
2023-05-24T01:09:06.812Z,12.70
2023-05-24T01:11:44.314Z,12.60
2023-05-24T01:14:21.250Z,12.60
2023-05-24T01:16:56.452Z,12.60
2023-05-24T01:19:50.638Z,12.60
2023-05-24T01:22:30.002Z,12.60
2023-05-24T01:25:05.570Z,12.60
2023-05-24T01:27:37.345Z,12.60
2023-05-24T01:30:06.547Z,12.60
2023-05-24T01:32:34.801Z,12.60
2023-05-24T01:35:02.857Z,12.60
2023-05-24T01:37:30.897Z,12.60
2023-05-24T01:40:00.559Z,12.60
2023-05-24T01:42:37.662Z,12.50
2023-05-24T01:45:15.221Z,12.60
2023-05-24T01:47:53.943Z,12.50
2023-05-24T01:50:27.765Z,12.50
2023-05-24T01:52:59.621Z,12.50
2023-05-24T01:55:29.192Z,12.50
2023-05-24T01:58:03.026Z,12.40
2023-05-24T02:00:33.987Z,12.40
2023-05-24T02:03:03.598Z,12.50
2023-05-24T02:05:33.835Z,12.50
2023-05-24T02:08:02.198Z,12.50
2023-05-24T02:10:30.248Z,12.50
2023-05-24T02:12:59.983Z,12.40
2023-05-24T02:15:30.362Z,12.40
2023-05-24T02:17:58.669Z,12.40
2023-05-24T02:20:28.565Z,12.40
2023-05-24T02:22:56.615Z,12.40
2023-05-24T02:25:24.719Z,12.40
2023-05-24T02:27:52.804Z,12.40
2023-05-24T02:30:22.337Z,12.40
2023-05-24T02:32:50.415Z,12.40
2023-05-24T02:35:18.798Z,12.40
2023-05-24T02:37:46.878Z,12.40
2023-05-24T02:40:15.232Z,12.30
2023-05-24T02:42:43.364Z,12.40
2023-05-24T02:45:12.198Z,12.40
2023-05-24T02:47:41.598Z,12.40
2023-05-24T02:50:10.765Z,12.40
2023-05-24T02:52:38.856Z,12.40
2023-05-24T02:55:08.645Z,12.40
2023-05-24T02:57:37.909Z,12.30
2023-05-24T03:00:08.385Z,12.30
2023-05-24T03:02:38.528Z,12.30
2023-05-24T03:05:09.433Z,12.30
2023-05-24T03:07:37.462Z,12.30
2023-05-24T03:10:07.379Z,12.30
2023-05-24T03:12:35.460Z,12.20
2023-05-24T03:15:03.759Z,12.20
2023-05-24T03:17:31.869Z,12.10
2023-05-24T03:20:00.187Z,12.10
2023-05-24T03:22:29.867Z,12.10
2023-05-24T03:24:58.317Z,12.10
2023-05-24T03:27:26.542Z,12.10
2023-05-24T03:29:54.629Z,12.00
2023-05-24T03:32:22.811Z,12.00
2023-05-24T03:34:50.985Z,12.00
2023-05-24T03:37:19.066Z,11.90
2023-05-24T03:39:48.527Z,11.90
2023-05-24T03:42:16.830Z,11.90
2023-05-24T03:44:44.934Z,11.90
2023-05-24T03:47:12.981Z,11.80
2023-05-24T03:49:41.165Z,11.70
2023-05-24T03:52:09.262Z,11.80
2023-05-24T03:54:37.468Z,11.70
2023-05-24T03:57:08.384Z,11.60
2023-05-24T03:59:36.410Z,11.60
2023-05-24T04:02:04.549Z,11.60
2023-05-24T04:04:32.632Z,11.60
2023-05-24T04:07:00.713Z,11.60
2023-05-24T04:09:28.774Z,11.50
2023-05-24T04:11:56.829Z,11.50
2023-05-24T04:14:26.279Z,11.60
2023-05-24T04:16:55.216Z,11.60
2023-05-24T04:19:23.303Z,11.60
2023-05-24T04:21:51.794Z,11.60
2023-05-24T04:24:19.827Z,11.50
2023-05-24T04:26:48.366Z,11.50
2023-05-24T04:29:16.507Z,11.50
2023-05-24T04:31:46.016Z,11.50
2023-05-24T04:34:14.580Z,11.50
2023-05-24T04:36:42.945Z,11.50
2023-05-24T04:39:11.497Z,11.50
2023-05-24T04:41:39.783Z,11.50
2023-05-24T04:44:08.252Z,11.50
2023-05-24T04:46:37.406Z,11.50
2023-05-24T04:49:08.491Z,11.60
2023-05-24T04:51:38.921Z,11.60
2023-05-24T04:54:09.252Z,11.60
2023-05-24T04:56:38.749Z,11.60
2023-05-24T04:59:07.002Z,11.50
2023-05-24T05:01:35.478Z,11.60
2023-05-24T05:04:05.404Z,11.60
2023-05-24T05:06:38.828Z,11.70
2023-05-24T05:09:09.429Z,11.80
2023-05-24T05:11:37.758Z,11.80
2023-05-24T05:14:06.249Z,11.80
2023-05-24T05:16:34.353Z,11.90
2023-05-24T05:19:04.755Z,12.00
2023-05-24T05:21:34.975Z,11.90
2023-05-24T05:24:04.288Z,11.90
2023-05-24T05:26:32.597Z,12.00
2023-05-24T05:29:00.689Z,12.10
2023-05-24T05:31:29.233Z,12.20
2023-05-24T05:33:57.247Z,12.20
2023-05-24T05:36:25.246Z,12.30
2023-05-24T05:38:54.920Z,12.30
2023-05-24T05:41:23.205Z,12.30
2023-05-24T05:43:51.369Z,12.50
2023-05-24T05:46:21.520Z,12.70
2023-05-24T05:48:49.621Z,13.10
2023-05-24T05:51:17.649Z,13.40
2023-05-24T05:53:45.783Z,13.70
2023-05-24T05:56:15.203Z,13.80
2023-05-24T05:58:43.462Z,13.60
2023-05-24T06:01:11.588Z,13.60
2023-05-24T06:03:39.944Z,13.90
2023-05-24T06:06:08.480Z,14.00
2023-05-24T06:08:36.971Z,13.90
2023-05-24T06:11:05.061Z,13.80
2023-05-24T06:13:34.534Z,13.90
2023-05-24T06:16:02.616Z,14.10
2023-05-24T06:18:33.254Z,13.90
2023-05-24T06:21:01.335Z,14.20
2023-05-24T06:23:29.373Z,14.50
2023-05-24T06:25:57.466Z,15.00
2023-05-24T06:28:25.654Z,15.10
2023-05-24T06:30:55.212Z,15.50
2023-05-24T06:33:23.377Z,15.70
2023-05-24T06:35:51.549Z,16.10
2023-05-24T06:38:19.679Z,16.00
2023-05-24T06:40:47.851Z,15.40
2023-05-24T06:43:16.224Z,15.60
2023-05-24T06:45:44.327Z,15.60
2023-05-24T06:48:14.004Z,15.70
2023-05-24T06:50:42.885Z,15.90
2023-05-24T06:53:11.594Z,17.30
2023-05-24T06:55:39.666Z,17.70
2023-05-24T06:58:08.138Z,17.90
2023-05-24T07:00:36.425Z,18.30
2023-05-24T07:03:05.059Z,17.60
2023-05-24T07:05:34.912Z,17.10
2023-05-24T07:08:03.126Z,16.10
2023-05-24T07:10:31.398Z,16.00
2023-05-24T07:12:59.512Z,15.40
2023-05-24T07:15:27.813Z,15.30
2023-05-24T07:17:56.000Z,15.70
2023-05-24T07:20:25.361Z,15.40
2023-05-24T07:22:54.862Z,15.30
2023-05-24T07:25:23.061Z,15.50
2023-05-24T07:27:51.390Z,16.10
2023-05-24T07:30:31.274Z,16.20
2023-05-24T07:33:01.709Z,16.20
2023-05-24T07:35:31.290Z,16.60
2023-05-24T07:38:00.762Z,16.30
2023-05-24T07:40:28.908Z,16.40
2023-05-24T07:42:57.076Z,16.30
2023-05-24T07:45:25.273Z,15.80
2023-05-24T07:47:56.547Z,15.70
2023-05-24T07:50:25.175Z,15.90
2023-05-24T07:52:53.275Z,16.00
2023-05-24T07:55:22.990Z,16.00
2023-05-24T07:57:51.041Z,16.00
2023-05-24T08:00:20.252Z,16.10
2023-05-24T08:02:48.558Z,16.60
2023-05-24T08:05:18.252Z,16.60
2023-05-24T08:07:46.649Z,16.60
2023-05-24T08:10:14.966Z,16.80
2023-05-24T08:12:44.487Z,16.70
2023-05-24T08:15:12.779Z,16.60
2023-05-24T08:17:41.336Z,16.40
2023-05-24T08:20:13.845Z,16.20
2023-05-24T08:22:42.422Z,16.30
2023-05-24T08:25:11.271Z,16.60
2023-05-24T08:27:39.444Z,16.60
2023-05-24T08:30:11.240Z,16.80
2023-05-24T08:32:39.616Z,16.90
2023-05-24T08:35:20.256Z,16.60
2023-05-24T08:37:49.980Z,16.70
2023-05-24T08:40:18.559Z,16.50
2023-05-24T08:42:48.144Z,16.40
2023-05-24T08:45:18.368Z,16.50
2023-05-24T08:47:47.864Z,16.40
2023-05-24T08:50:16.394Z,16.70
2023-05-24T08:52:46.499Z,16.60
2023-05-24T08:55:16.228Z,16.50
2023-05-24T08:57:46.568Z,16.70
2023-05-24T09:00:15.886Z,16.70
2023-05-24T09:02:47.227Z,16.90
2023-05-24T09:05:17.307Z,17.10
2023-05-24T09:07:47.351Z,17.30
2023-05-24T09:10:16.213Z,17.10
2023-05-24T09:12:48.743Z,16.60
2023-05-24T09:15:16.835Z,16.50
2023-05-24T09:17:46.564Z,16.50
2023-05-24T09:20:14.836Z,16.50
2023-05-24T09:22:45.104Z,16.20
2023-05-24T09:25:16.107Z,15.90
2023-05-24T09:27:47.486Z,16.00
2023-05-24T09:30:17.059Z,15.90
2023-05-24T09:32:57.176Z,16.00
2023-05-24T09:35:26.868Z,16.00
2023-05-24T09:37:59.742Z,15.80
2023-05-24T09:40:29.463Z,15.90
2023-05-24T09:43:09.030Z,15.90
2023-05-24T09:45:42.974Z,16.00
2023-05-24T09:48:15.327Z,16.00
2023-05-24T09:50:45.763Z,15.90
2023-05-24T09:53:14.297Z,15.70
2023-05-24T09:55:42.418Z,15.60
2023-05-24T09:58:13.106Z,15.40
2023-05-24T10:00:42.936Z,15.40
2023-05-24T10:03:15.051Z,15.60
2023-05-24T10:05:45.748Z,15.60
2023-05-24T10:08:14.458Z,15.40
2023-05-24T10:10:44.607Z,15.70
2023-05-24T10:13:16.179Z,16.10
2023-05-24T10:15:45.023Z,16.50
2023-05-24T10:18:14.824Z,16.70
2023-05-24T10:20:44.192Z,16.70
2023-05-24T10:23:17.524Z,16.50
2023-05-24T10:25:51.141Z,16.30
2023-05-24T10:28:21.864Z,16.30
2023-05-24T10:31:00.200Z,16.10
2023-05-24T10:33:30.854Z,16.00
2023-05-24T10:35:59.560Z,15.70
2023-05-24T10:38:27.866Z,15.40
2023-05-24T10:40:55.907Z,15.30
2023-05-24T10:43:23.995Z,15.20
2023-05-24T10:45:53.266Z,15.00
2023-05-24T10:48:38.533Z,15.20
2023-05-24T10:51:36.515Z,15.00
2023-05-24T10:54:18.665Z,15.20
2023-05-24T10:56:48.205Z,15.20
2023-05-24T10:59:30.433Z,15.30
2023-05-24T11:02:00.920Z,15.30
2023-05-24T11:04:34.458Z,15.50
2023-05-24T11:07:05.299Z,15.40
2023-05-24T11:09:34.971Z,15.50
2023-05-24T11:12:08.116Z,15.50
2023-05-24T11:14:40.180Z,15.50
2023-05-24T11:17:08.999Z,15.50
2023-05-24T11:19:40.174Z,15.60
2023-05-24T11:22:09.459Z,15.90
2023-05-24T11:24:38.330Z,16.10
2023-05-24T11:27:07.169Z,16.00
2023-05-24T11:29:42.639Z,16.30
2023-05-24T11:32:10.952Z,16.00
2023-05-24T11:34:40.656Z,16.10
2023-05-24T11:37:09.470Z,16.30
2023-05-24T11:39:39.380Z,16.10
2023-05-24T11:42:08.463Z,16.10
2023-05-24T11:44:39.197Z,15.90
2023-05-24T11:47:09.096Z,15.60
2023-05-24T11:49:37.243Z,15.30
2023-05-24T11:52:07.518Z,15.20
2023-05-24T11:54:37.445Z,15.20
2023-05-24T11:57:06.962Z,15.40
2023-05-24T11:59:37.958Z,15.50
2023-05-24T12:02:07.996Z,15.50
2023-05-24T12:04:36.597Z,15.70
2023-05-24T12:07:12.005Z,15.80
2023-05-24T12:09:40.128Z,16.10
2023-05-24T12:12:09.034Z,16.60
2023-05-24T12:14:37.259Z,16.40
2023-05-24T12:17:05.531Z,16.90
2023-05-24T12:19:36.265Z,17.70
2023-05-24T12:22:08.239Z,18.20
2023-05-24T12:24:38.419Z,18.40
2023-05-24T12:27:08.836Z,18.40
2023-05-24T12:29:38.674Z,18.10
2023-05-24T12:32:12.341Z,17.90
2023-05-24T12:34:42.482Z,17.20
2023-05-24T12:37:13.962Z,16.90
2023-05-24T12:39:44.257Z,16.50
2023-05-24T12:42:13.456Z,16.90
2023-05-24T12:44:42.223Z,17.00
2023-05-24T12:47:10.618Z,17.10
2023-05-24T12:49:38.820Z,17.00
2023-05-24T12:52:07.292Z,16.90
2023-05-24T12:54:36.962Z,16.90
2023-05-24T12:57:05.561Z,16.80
2023-05-24T12:59:35.070Z,16.80
2023-05-24T13:02:03.316Z,16.80
2023-05-24T13:04:33.739Z,16.60
2023-05-24T13:07:02.923Z,16.60
2023-05-24T13:09:31.236Z,16.20
2023-05-24T13:12:01.356Z,16.50
2023-05-24T13:14:29.619Z,16.70
2023-05-24T13:16:57.834Z,16.60
2023-05-24T13:19:26.544Z,16.60
2023-05-24T13:21:55.527Z,16.60
2023-05-24T13:24:23.814Z,17.00
2023-05-24T13:26:54.484Z,17.20
2023-05-24T13:31:56.426Z,17.30
2023-05-24T13:34:25.949Z,17.40
2023-05-24T13:36:55.068Z,17.90
2023-05-24T13:39:24.957Z,17.70
2023-05-24T13:41:53.205Z,17.60
2023-05-24T13:44:21.445Z,17.30
2023-05-24T13:46:50.943Z,17.10
2023-05-24T13:49:19.214Z,17.30
2023-05-24T13:51:47.962Z,17.30
2023-05-24T13:54:16.477Z,17.60
2023-05-24T13:56:45.084Z,17.30
2023-05-24T13:59:13.672Z,16.80
2023-05-24T14:01:41.791Z,16.90
2023-05-24T14:04:11.926Z,16.90
2023-05-24T14:06:40.210Z,16.70
2023-05-24T14:09:08.618Z,16.30
2023-05-24T14:11:37.221Z,16.40
2023-05-24T14:16:36.907Z,16.50
2023-05-24T14:19:05.700Z,16.40
2023-05-24T14:21:36.483Z,16.30
2023-05-24T14:24:04.863Z,16.20
2023-05-24T14:26:32.988Z,16.00
2023-05-24T14:29:01.717Z,15.80
2023-05-24T14:31:29.896Z,15.90
2023-05-24T14:33:57.929Z,15.90
2023-05-24T14:36:25.985Z,15.70
2023-05-24T14:38:55.505Z,15.80
2023-05-24T14:41:23.740Z,15.90
2023-05-24T14:43:52.188Z,15.90
2023-05-24T14:46:20.479Z,16.10
2023-05-24T14:48:48.786Z,16.60
2023-05-24T14:51:17.164Z,16.90
2023-05-24T14:53:45.239Z,16.70
2023-05-24T14:56:15.110Z,17.20
2023-05-24T14:58:43.375Z,17.50
2023-05-24T15:01:11.622Z,17.40
2023-05-24T15:03:39.896Z,17.30
2023-05-24T15:06:08.408Z,17.50
2023-05-24T15:08:36.620Z,17.70
2023-05-24T15:11:06.052Z,17.70
2023-05-24T15:13:35.614Z,17.90
2023-05-24T15:16:03.697Z,18.10
2023-05-24T15:18:32.721Z,18.20
2023-05-24T15:21:00.954Z,18.00
2023-05-24T15:23:29.182Z,18.10
2023-05-24T15:25:57.477Z,17.50
2023-05-24T15:28:26.901Z,17.50
2023-05-24T15:30:57.063Z,17.60
2023-05-24T15:33:26.587Z,17.20
2023-05-24T15:35:54.920Z,17.70
2023-05-24T15:38:23.345Z,17.70
2023-05-24T15:40:52.464Z,17.50
2023-05-24T15:43:20.736Z,17.60
2023-05-24T15:45:49.391Z,17.50
2023-05-24T15:48:18.837Z,17.50
2023-05-24T15:53:20.445Z,17.80
2023-05-24T15:55:58.708Z,17.60
2023-05-24T15:58:26.865Z,17.70
2023-05-24T16:00:56.029Z,17.60
2023-05-24T16:03:26.647Z,17.80
2023-05-24T16:05:55.092Z,17.70
2023-05-24T16:08:27.800Z,17.70
2023-05-24T16:10:57.567Z,17.60
2023-05-24T16:13:25.917Z,17.70
2023-05-24T16:15:54.374Z,17.80
2023-05-24T16:18:23.888Z,17.80
2023-05-24T16:20:54.715Z,17.90
2023-05-24T16:23:24.165Z,17.80
2023-05-24T16:25:52.552Z,17.70
2023-05-24T16:28:24.115Z,17.50
2023-05-24T16:30:55.816Z,17.30
2023-05-24T16:33:25.909Z,17.30
2023-05-24T16:36:02.814Z,17.30
2023-05-24T16:38:31.841Z,17.40
2023-05-24T16:41:00.228Z,17.40
2023-05-24T16:43:28.857Z,17.20
2023-05-24T16:45:57.073Z,17.20
2023-05-24T16:48:28.811Z,17.20
2023-05-24T16:50:58.858Z,17.20
2023-05-24T16:53:28.144Z,17.10
2023-05-24T16:55:58.022Z,17.10
2023-05-24T16:58:28.890Z,16.70
2023-05-24T17:00:57.410Z,16.70
2023-05-24T17:03:29.433Z,16.80
2023-05-24T17:06:03.476Z,16.70
2023-05-24T17:08:34.342Z,16.40
2023-05-24T17:11:03.014Z,16.60
2023-05-24T17:13:31.875Z,16.60
2023-05-24T17:16:00.693Z,16.60
2023-05-24T17:18:29.832Z,16.50
2023-05-24T17:21:00.209Z,16.20
2023-05-24T17:23:29.074Z,16.00
2023-05-24T17:25:57.306Z,16.00
2023-05-24T17:28:27.673Z,15.90
2023-05-24T17:30:55.939Z,15.70
2023-05-24T17:33:24.436Z,15.70
2023-05-24T17:35:53.815Z,15.70
2023-05-24T17:38:24.337Z,15.60
2023-05-24T17:40:57.030Z,15.50
2023-05-24T17:43:28.917Z,15.40
2023-05-24T17:46:03.303Z,15.30
2023-05-24T17:48:32.846Z,15.20
2023-05-24T17:51:02.045Z,15.20
2023-05-24T17:53:34.503Z,15.20
2023-05-24T17:56:03.120Z,15.10
2023-05-24T17:58:35.537Z,15.10
2023-05-24T18:01:05.905Z,15.00
2023-05-24T18:03:36.579Z,14.90
2023-05-24T18:06:06.315Z,14.90
2023-05-24T18:08:37.861Z,14.90
2023-05-24T18:11:10.120Z,14.80
2023-05-24T18:13:39.320Z,14.80
2023-05-24T18:16:08.027Z,14.70
2023-05-24T18:18:37.727Z,14.60
2023-05-24T18:21:07.319Z,14.60
2023-05-24T18:23:38.167Z,14.40
2023-05-24T18:26:09.067Z,14.40
2023-05-24T18:28:38.001Z,14.20
2023-05-24T18:31:08.765Z,14.10
2023-05-24T18:33:38.029Z,14.10
2023-05-24T18:36:06.472Z,14.00
2023-05-24T18:38:37.006Z,13.90
2023-05-24T18:41:09.287Z,13.80
2023-05-24T18:43:37.432Z,13.80
2023-05-24T18:46:05.711Z,13.70
2023-05-24T18:48:33.828Z,13.60
2023-05-24T18:51:02.023Z,13.50
2023-05-24T18:53:30.039Z,13.50
2023-05-24T18:55:59.499Z,13.40
2023-05-24T18:58:27.631Z,13.30
2023-05-24T19:00:56.020Z,13.20
2023-05-24T19:03:24.860Z,13.20
2023-05-24T19:05:53.107Z,13.20
2023-05-24T19:08:21.306Z,13.10
2023-05-24T19:10:49.385Z,13.10
2023-05-24T19:13:18.967Z,13.00
2023-05-24T19:15:47.045Z,12.90
2023-05-24T19:18:15.108Z,12.80
2023-05-24T19:20:43.247Z,12.80
2023-05-24T19:23:11.385Z,12.80
2023-05-24T19:25:42.269Z,12.70
2023-05-24T19:28:11.354Z,12.70
2023-05-24T19:30:40.876Z,12.60
2023-05-24T19:33:08.933Z,12.50
2023-05-24T19:35:37.541Z,12.40
2023-05-24T19:38:05.902Z,12.40
2023-05-24T19:40:34.004Z,12.30
2023-05-24T19:43:02.065Z,12.30
2023-05-24T19:45:30.218Z,12.20
2023-05-24T19:47:59.757Z,12.20
2023-05-24T19:50:30.541Z,12.20
2023-05-24T19:52:59.345Z,12.20
2023-05-24T19:55:27.506Z,12.20
2023-05-24T19:57:55.569Z,12.20
2023-05-24T20:00:23.838Z,12.20
2023-05-24T20:02:52.017Z,12.10
2023-05-24T20:05:21.634Z,12.10
2023-05-24T20:07:49.696Z,12.10
2023-05-24T20:10:18.690Z,12.10
2023-05-24T20:12:46.791Z,12.10
2023-05-24T20:15:17.768Z,12.10
2023-05-24T20:17:46.663Z,12.10
2023-05-24T20:20:14.955Z,12.10
2023-05-24T20:22:44.477Z,12.00
2023-05-24T20:25:12.615Z,12.10
2023-05-24T20:27:42.220Z,12.00
2023-05-24T20:30:11.570Z,12.00
2023-05-24T20:32:40.047Z,12.00
2023-05-24T20:35:09.379Z,11.90
2023-05-24T20:37:37.639Z,11.90
2023-05-24T20:40:08.757Z,11.80
2023-05-24T20:42:37.098Z,11.80
2023-05-24T20:45:06.472Z,11.80
2023-05-24T20:47:34.613Z,11.80
2023-05-24T20:50:04.003Z,11.80
2023-05-24T20:52:32.052Z,11.70
2023-05-24T20:55:01.993Z,11.70
2023-05-24T20:57:35.311Z,11.70
2023-05-24T21:00:03.750Z,11.70
2023-05-24T21:02:32.480Z,11.60
2023-05-24T21:05:01.232Z,11.60
2023-05-24T21:07:29.589Z,11.60
2023-05-24T21:09:57.604Z,11.60
2023-05-24T21:12:25.692Z,11.60
2023-05-24T21:14:55.264Z,11.60
2023-05-24T21:17:23.363Z,11.50
2023-05-24T21:19:51.600Z,11.50
2023-05-24T21:22:19.728Z,11.50
2023-05-24T21:24:47.809Z,11.50
2023-05-24T21:27:15.906Z,11.50
2023-05-24T21:29:44.174Z,11.40
2023-05-24T21:32:13.567Z,11.40
2023-05-24T21:34:41.841Z,11.40
2023-05-24T21:37:09.894Z,11.40
2023-05-24T21:39:37.955Z,11.40
2023-05-24T21:42:06.773Z,11.40
2023-05-24T21:44:34.816Z,11.40
2023-05-24T21:47:03.036Z,11.40
2023-05-24T21:49:32.759Z,11.40
2023-05-24T21:52:00.890Z,11.40
2023-05-24T21:54:29.292Z,11.40
2023-05-24T21:56:57.623Z,11.40
2023-05-24T21:59:25.948Z,11.40
2023-05-24T22:01:54.305Z,11.40
2023-05-24T22:04:22.743Z,11.30
2023-05-24T22:06:52.702Z,11.40
2023-05-24T22:09:21.099Z,11.40
2023-05-24T22:11:49.862Z,11.40
2023-05-24T22:14:18.649Z,11.40
2023-05-24T22:16:46.906Z,11.40
2023-05-24T22:19:18.405Z,11.40
2023-05-24T22:21:52.252Z,11.40
2023-05-24T22:24:20.687Z,11.40
2023-05-24T22:26:49.890Z,11.40
2023-05-24T22:29:18.137Z,11.40
2023-05-24T22:31:46.421Z,11.40
2023-05-24T22:34:14.795Z,11.40
2023-05-24T22:36:43.223Z,11.40
2023-05-24T22:39:12.728Z,11.40
2023-05-24T22:41:41.189Z,11.40
2023-05-24T22:44:09.660Z,11.40
2023-05-24T22:46:38.105Z,11.40
2023-05-24T22:49:06.562Z,11.30
2023-05-24T22:51:34.908Z,11.30
2023-05-24T22:54:03.090Z,11.30
2023-05-24T22:56:35.479Z,11.30
2023-05-24T22:59:03.801Z,11.30
2023-05-24T23:01:32.662Z,11.40
2023-05-24T23:04:11.961Z,11.30
2023-05-24T23:06:49.152Z,11.40
2023-05-24T23:09:33.857Z,11.30
2023-05-24T23:12:08.390Z,11.30
2023-05-24T23:14:39.092Z,11.30
2023-05-24T23:17:10.469Z,11.30
2023-05-24T23:19:42.320Z,11.30
2023-05-24T23:22:12.068Z,11.30
2023-05-24T23:24:42.292Z,11.30
2023-05-24T23:27:12.226Z,11.30
2023-05-24T23:29:40.427Z,11.30
2023-05-24T23:32:09.488Z,11.30
2023-05-24T23:34:37.791Z,11.30
2023-05-24T23:37:06.701Z,11.30
2023-05-24T23:39:34.793Z,11.30
2023-05-24T23:42:03.739Z,11.30
2023-05-24T23:44:33.413Z,11.30
2023-05-24T23:47:02.546Z,11.30
2023-05-24T23:49:30.754Z,11.30
2023-05-24T23:51:59.757Z,11.30
2023-05-24T23:54:27.755Z,11.30
2023-05-24T23:57:00.863Z,11.30
2023-05-24T23:59:28.910Z,11.30
